createdAt,value
2022-12-15T00:00:52.995Z,93167.22
2022-12-15T00:04:14.632Z,93166.13
2022-12-15T00:07:36.109Z,93165.75
2022-12-15T00:10:58.111Z,93163.94
2022-12-15T00:14:19.942Z,93159.94
2022-12-15T00:17:41.297Z,93162.56
2022-12-15T00:21:02.632Z,93148.88
2022-12-15T00:24:24.319Z,93156.06
2022-12-15T00:27:45.611Z,93149.38
2022-12-15T00:31:07.208Z,93161.94
2022-12-15T00:34:28.966Z,93169.13
2022-12-15T00:37:50.549Z,93165.09
2022-12-15T00:40:59.786Z,93171.78
2022-12-15T00:44:03.136Z,93166.97
2022-12-15T00:47:07.450Z,93168.41
2022-12-15T00:50:29.027Z,93166.13
2022-12-15T00:53:50.347Z,93178.50
2022-12-15T00:57:11.601Z,93169.41
2022-12-15T01:00:33.832Z,93166.59
2022-12-15T01:03:55.169Z,93162.44
2022-12-15T01:07:16.472Z,93163.94
2022-12-15T01:10:38.751Z,93151.88
2022-12-15T01:14:00.086Z,93164.63
2022-12-15T01:17:21.616Z,93170.97
2022-12-15T01:20:24.699Z,93163.63
2022-12-15T01:23:28.672Z,93172.38
2022-12-15T01:26:31.813Z,93164.72
2022-12-15T01:29:35.189Z,93175.47
2022-12-15T01:32:42.731Z,93165.25
2022-12-15T01:36:02.012Z,93173.28
2022-12-15T01:39:05.088Z,93169.53
2022-12-15T01:42:12.743Z,93171.16
2022-12-15T01:45:24.976Z,93174.97
2022-12-15T01:48:50.983Z,93167.34
2022-12-15T01:51:59.505Z,93175.25
2022-12-15T01:55:02.738Z,93177.09
2022-12-15T01:58:08.997Z,93177.97
2022-12-15T02:01:12.540Z,93182.59
2022-12-15T02:04:17.914Z,93180.16
2022-12-15T02:07:21.171Z,93174.00
2022-12-15T02:10:28.689Z,93174.78
2022-12-15T02:14:01.369Z,93173.19
2022-12-15T02:17:36.074Z,93174.88
2022-12-15T02:20:48.243Z,93172.66
2022-12-15T02:24:20.586Z,93174.72
2022-12-15T02:27:50.016Z,93161.16
2022-12-15T02:31:25.423Z,93159.81
2022-12-15T02:34:35.001Z,93162.72
2022-12-15T02:37:40.521Z,93159.38
2022-12-15T02:40:43.704Z,93159.88
2022-12-15T02:43:46.919Z,93166.69
2022-12-15T02:47:21.739Z,93168.50
2022-12-15T02:50:56.770Z,93176.03
2022-12-15T02:54:30.618Z,93176.75
2022-12-15T02:57:36.659Z,93169.78
2022-12-15T03:00:44.342Z,93170.44
2022-12-15T03:03:49.412Z,93173.44
2022-12-15T03:07:01.406Z,93164.84
2022-12-15T03:10:06.587Z,93166.66
2022-12-15T03:13:09.682Z,93153.72
2022-12-15T03:16:13.292Z,93167.31
2022-12-15T03:19:16.398Z,93152.34
2022-12-15T03:22:19.507Z,93151.66
2022-12-15T03:25:22.694Z,93145.28
2022-12-15T03:28:25.777Z,93140.66
2022-12-15T03:31:29.298Z,93143.28
2022-12-15T03:34:32.446Z,93137.06
2022-12-15T03:37:35.519Z,93138.97
2022-12-15T03:40:38.733Z,93144.06
2022-12-15T03:43:41.876Z,93143.22
2022-12-15T03:46:44.992Z,93135.81
2022-12-15T03:49:48.029Z,93140.97
2022-12-15T03:52:55.839Z,93137.09
2022-12-15T03:55:59.042Z,93141.78
2022-12-15T03:59:02.184Z,93140.69
2022-12-15T04:02:07.639Z,93145.75
2022-12-15T04:05:16.699Z,93150.16
2022-12-15T04:08:19.866Z,93141.72
2022-12-15T04:11:23.007Z,93141.78
2022-12-15T04:14:26.096Z,93135.69
2022-12-15T04:17:29.180Z,93129.59
2022-12-15T04:20:33.707Z,93131.34
2022-12-15T04:23:36.765Z,93126.06
2022-12-15T04:26:58.268Z,93126.56
2022-12-15T04:30:19.765Z,93117.91
2022-12-15T04:33:41.507Z,93116.28
2022-12-15T04:37:05.503Z,93106.25
2022-12-15T04:40:27.469Z,93116.75
2022-12-15T04:43:48.965Z,93117.84
2022-12-15T04:47:10.721Z,93112.88
2022-12-15T04:50:31.848Z,93109.09
2022-12-15T04:53:53.085Z,93114.00
2022-12-15T04:57:14.719Z,93100.75
2022-12-15T05:00:35.996Z,93104.25
2022-12-15T05:03:57.705Z,93110.00
2022-12-15T05:07:20.019Z,93109.41
2022-12-15T05:10:41.318Z,93107.69
2022-12-15T05:14:03.010Z,93108.66
2022-12-15T05:17:24.623Z,93108.84
2022-12-15T05:20:45.993Z,93113.09
2022-12-15T05:24:12.078Z,93104.88
2022-12-15T05:27:33.550Z,93106.19
2022-12-15T05:30:55.191Z,93102.72
2022-12-15T05:34:05.051Z,93102.72
2022-12-15T05:37:08.466Z,93094.91
2022-12-15T05:40:12.029Z,93101.53
2022-12-15T05:43:15.184Z,93097.50
2022-12-15T05:46:18.522Z,93096.06
2022-12-15T05:49:23.909Z,93106.16
2022-12-15T05:52:27.052Z,93103.41
2022-12-15T05:55:30.476Z,93114.19
2022-12-15T05:58:33.840Z,93112.47
2022-12-15T06:01:37.544Z,93111.50
2022-12-15T06:04:40.888Z,93107.22
2022-12-15T06:07:44.133Z,93110.97
2022-12-15T06:10:55.178Z,93110.53
2022-12-15T06:13:58.761Z,93111.53
2022-12-15T06:17:01.907Z,93107.50
2022-12-15T06:20:05.474Z,93110.91
2022-12-15T06:23:08.638Z,93113.56
2022-12-15T06:26:16.303Z,93114.91
2022-12-15T06:29:19.857Z,93117.63
2022-12-15T06:32:23.088Z,93120.16
2022-12-15T06:35:26.174Z,93117.28
2022-12-15T06:38:30.181Z,93124.66
2022-12-15T06:41:33.750Z,93127.53
2022-12-15T06:44:36.844Z,93128.31
2022-12-15T06:47:39.990Z,93132.16
2022-12-15T06:50:43.262Z,93135.81
2022-12-15T06:53:49.417Z,93133.63
2022-12-15T06:56:53.198Z,93143.72
2022-12-15T06:59:56.406Z,93137.59
2022-12-15T07:02:59.685Z,93137.53
2022-12-15T07:06:07.801Z,93140.59
2022-12-15T07:09:17.382Z,93155.53
2022-12-15T07:12:20.858Z,93158.34
2022-12-15T07:15:24.013Z,93155.81
2022-12-15T07:18:27.162Z,93162.22
2022-12-15T07:21:30.567Z,93162.22
2022-12-15T07:24:33.770Z,93164.06
2022-12-15T07:27:36.816Z,93168.81
2022-12-15T07:30:40.294Z,93171.25
2022-12-15T07:33:43.511Z,93173.09
2022-12-15T07:36:51.809Z,93174.94
2022-12-15T07:39:56.007Z,93178.16
2022-12-15T07:42:59.092Z,93179.16
2022-12-15T07:46:02.416Z,93179.28
2022-12-15T07:49:05.890Z,93189.06
2022-12-15T07:52:08.983Z,93191.03
2022-12-15T07:55:12.401Z,93192.03
2022-12-15T07:58:15.648Z,93193.69
2022-12-15T08:01:29.146Z,93200.56
2022-12-15T08:04:32.650Z,93206.78
2022-12-15T08:07:36.081Z,93213.31
2022-12-15T08:10:42.383Z,93217.97
2022-12-15T08:14:02.934Z,93220.50
2022-12-15T08:17:07.061Z,93224.63
2022-12-15T08:20:10.740Z,93220.88
2022-12-15T08:23:13.938Z,93223.00
2022-12-15T08:26:18.691Z,93228.97
2022-12-15T08:32:50.166Z,93238.50
2022-12-15T08:35:59.778Z,93241.13
2022-12-15T08:39:03.536Z,93243.91
2022-12-15T08:42:07.116Z,93247.00
2022-12-15T08:45:11.882Z,93241.47
2022-12-15T08:48:15.263Z,93248.53
2022-12-15T08:51:18.772Z,93252.41
2022-12-15T08:54:21.990Z,93254.38
2022-12-15T08:57:25.313Z,93250.59
2022-12-15T09:00:28.489Z,93247.91
2022-12-15T09:03:32.055Z,93257.19
2022-12-15T09:06:37.430Z,93262.19
2022-12-15T09:09:40.628Z,93270.13
2022-12-15T09:12:43.824Z,93269.94
2022-12-15T09:16:09.001Z,93272.94
2022-12-15T09:19:10.997Z,93273.72
2022-12-15T09:22:14.197Z,93272.69
2022-12-15T09:25:17.363Z,93284.91
2022-12-15T09:28:20.557Z,93284.91
2022-12-15T09:31:26.886Z,93281.81
2022-12-15T09:34:30.132Z,93283.13
2022-12-15T09:37:33.656Z,93298.50
2022-12-15T09:40:36.704Z,93297.84
2022-12-15T09:44:06.326Z,93308.59
2022-12-15T09:47:18.554Z,93311.31
2022-12-15T09:50:28.837Z,93315.94
2022-12-15T09:53:54.291Z,93315.16
2022-12-15T09:56:58.684Z,93324.75
2022-12-15T10:00:08.336Z,93320.06
2022-12-15T10:03:17.522Z,93326.66
2022-12-15T10:06:51.162Z,93324.34
2022-12-15T10:09:54.459Z,93329.38
2022-12-15T10:13:05.471Z,93332.88
2022-12-15T10:16:33.397Z,93340.31
2022-12-15T10:20:01.249Z,93344.69
2022-12-15T10:23:16.679Z,93346.22
2022-12-15T10:26:27.679Z,93351.38
2022-12-15T10:29:51.168Z,93354.69
2022-12-15T10:33:00.508Z,93352.16
2022-12-15T10:36:08.167Z,93351.97
2022-12-15T10:39:14.418Z,93357.00
2022-12-15T10:42:21.574Z,93353.13
2022-12-15T10:46:00.473Z,93358.84
2022-12-15T10:49:09.729Z,93361.88
2022-12-15T10:52:35.272Z,93371.28
2022-12-15T10:55:41.939Z,93379.69
2022-12-15T10:59:03.525Z,93374.16
2022-12-15T11:05:55.724Z,93381.91
2022-12-15T11:09:26.624Z,93377.38
2022-12-15T11:12:50.845Z,93383.28
2022-12-15T11:15:55.383Z,93390.53
2022-12-15T11:19:54.017Z,93397.44
2022-12-15T11:23:34.195Z,93393.94
2022-12-15T11:26:48.894Z,93398.31
2022-12-15T11:29:58.250Z,93397.31
2022-12-15T11:33:02.297Z,93404.69
2022-12-15T11:36:10.352Z,93405.66
2022-12-15T11:39:43.844Z,93417.59
2022-12-15T11:43:33.401Z,93425.16
2022-12-15T11:47:05.857Z,93426.63
2022-12-15T11:50:21.010Z,93431.66
2022-12-15T11:53:24.079Z,93435.53
2022-12-15T11:56:40.100Z,93438.06
2022-12-15T12:00:16.263Z,93435.34
2022-12-15T12:03:38.604Z,93439.69
2022-12-15T12:07:09.930Z,93444.94
2022-12-15T12:10:51.645Z,93454.53
2022-12-15T12:14:18.285Z,93455.22
2022-12-15T12:17:39.609Z,93448.13
2022-12-15T12:21:07.193Z,93451.13
2022-12-15T12:24:42.925Z,93456.84
2022-12-15T12:28:29.600Z,93447.75
2022-12-15T12:31:52.505Z,93463.06
2022-12-15T12:35:30.982Z,93468.59
2022-12-15T12:38:29.223Z,93463.16
2022-12-15T12:41:46.983Z,93464.34
2022-12-15T12:44:50.342Z,93473.72
2022-12-15T12:47:57.098Z,93470.53
2022-12-15T12:51:30.815Z,93477.41
2022-12-15T12:54:37.032Z,93475.09
2022-12-15T12:57:45.001Z,93478.09
2022-12-15T13:01:08.176Z,93481.88
2022-12-15T13:04:37.292Z,93489.56
2022-12-15T13:07:41.676Z,93489.34
2022-12-15T13:10:47.575Z,93495.25
2022-12-15T13:13:54.968Z,93505.31
2022-12-15T13:17:26.174Z,93503.97
2022-12-15T13:20:34.039Z,93509.97
2022-12-15T13:23:42.782Z,93507.75
2022-12-15T13:26:48.668Z,93511.91
2022-12-15T13:30:01.355Z,93510.06
2022-12-15T13:33:31.939Z,93511.91
2022-12-15T13:36:38.594Z,93517.44
2022-12-15T13:39:57.083Z,93517.22
2022-12-15T13:43:30.227Z,93529.63
2022-12-15T13:46:34.828Z,93527.78
2022-12-15T13:50:02.497Z,93537.03
2022-12-15T13:53:30.405Z,93544.16
2022-12-15T13:56:49.108Z,93542.81
2022-12-15T14:00:07.807Z,93541.63
2022-12-15T14:03:16.897Z,93547.34
2022-12-15T14:06:20.212Z,93556.66
2022-12-15T14:09:39.286Z,93561.06
2022-12-15T14:12:43.069Z,93563.13
2022-12-15T14:15:51.662Z,93573.91
2022-12-15T14:19:15.538Z,93572.03
2022-12-15T14:22:28.726Z,93561.47
2022-12-15T14:25:32.530Z,93568.03
2022-12-15T14:28:37.924Z,93569.25
2022-12-15T14:31:41.478Z,93570.69
2022-12-15T14:34:50.557Z,93581.25
2022-12-15T14:37:57.779Z,93579.88
2022-12-15T14:41:03.899Z,93581.06
2022-12-15T14:44:36.850Z,93592.31
2022-12-15T14:47:41.705Z,93591.41
2022-12-15T14:50:48.533Z,93589.84
2022-12-15T14:53:53.439Z,93593.75
2022-12-15T14:57:16.924Z,93597.41
2022-12-15T15:00:35.237Z,93599.63
2022-12-15T15:03:10.519Z,93380.09
2022-12-15T15:03:41.538Z,93608.84
2022-12-15T15:06:50.542Z,93604.06
2022-12-15T15:09:56.052Z,93606.63
2022-12-15T15:12:59.848Z,93614.00
2022-12-15T15:16:07.351Z,93628.22
2022-12-15T15:19:22.111Z,93626.22
2022-12-15T15:22:25.187Z,93629.03
2022-12-15T15:25:31.575Z,93629.75
2022-12-15T15:28:42.337Z,93636.19
2022-12-15T15:31:45.583Z,93631.16
2022-12-15T15:34:49.777Z,93638.69
2022-12-15T15:37:55.768Z,93639.16
2022-12-15T15:41:01.249Z,93650.38
2022-12-15T15:44:14.419Z,93644.66
2022-12-15T15:47:35.824Z,93656.13
2022-12-15T15:50:39.099Z,93655.28
2022-12-15T15:53:42.436Z,93655.34
2022-12-15T15:56:45.641Z,93656.50
2022-12-15T15:59:49.862Z,93659.25
2022-12-15T16:02:53.647Z,93662.03
2022-12-15T16:05:57.663Z,93663.84
2022-12-15T16:09:00.915Z,93658.63
2022-12-15T16:12:04.327Z,93667.34
2022-12-15T16:15:18.674Z,93669.84
2022-12-15T16:18:22.306Z,93662.75
2022-12-15T16:21:28.342Z,93678.78
2022-12-15T16:24:31.446Z,93674.19
2022-12-15T16:27:34.981Z,93679.47
2022-12-15T16:30:39.028Z,93679.47
2022-12-15T16:33:42.521Z,93687.28
2022-12-15T16:36:46.388Z,93689.59
2022-12-15T16:39:49.482Z,93692.78
2022-12-15T16:42:54.628Z,93695.50
2022-12-15T16:45:58.260Z,93704.88
2022-12-15T16:49:01.480Z,93696.66
2022-12-15T16:52:04.996Z,93696.44
2022-12-15T16:55:23.559Z,93695.94
2022-12-15T16:58:28.603Z,93695.47
2022-12-15T17:01:35.468Z,93696.13
2022-12-15T17:04:42.847Z,93705.53
2022-12-15T17:07:51.762Z,93705.31
2022-12-15T17:10:55.316Z,93711.50
2022-12-15T17:14:01.466Z,93703.97
2022-12-15T17:17:16.292Z,93707.22
2022-12-15T17:20:30.920Z,93711.31
2022-12-15T17:23:35.802Z,93711.81
2022-12-15T17:26:39.602Z,93714.81
2022-12-15T17:29:43.676Z,93713.00
2022-12-15T17:32:46.619Z,93720.06
2022-12-15T17:35:55.911Z,93718.97
2022-12-15T17:39:01.511Z,93715.28
2022-12-15T17:42:07.008Z,93712.38
2022-12-15T17:45:30.563Z,93714.66
2022-12-15T17:48:33.859Z,93723.81
2022-12-15T17:51:36.962Z,93720.41
2022-12-15T17:54:40.190Z,93729.56
2022-12-15T17:57:43.502Z,93722.97
2022-12-15T18:00:49.380Z,93726.19
2022-12-15T18:03:52.599Z,93730.34
2022-12-15T18:07:01.635Z,93732.19
2022-12-15T18:10:06.051Z,93733.84
2022-12-15T18:13:18.803Z,93744.63
2022-12-15T18:16:22.111Z,93750.56
2022-12-15T18:19:28.975Z,93749.75
2022-12-15T18:22:35.112Z,93757.53
2022-12-15T18:25:38.203Z,93761.66
2022-12-15T18:28:42.069Z,93764.63
2022-12-15T18:31:49.363Z,93763.31
2022-12-15T18:34:54.511Z,93770.38
2022-12-15T18:37:57.669Z,93769.03
2022-12-15T18:41:02.307Z,93767.66
2022-12-15T18:44:05.591Z,93774.34
2022-12-15T18:47:17.582Z,93770.91
2022-12-15T18:50:27.058Z,93787.13
2022-12-15T18:53:33.344Z,93793.03
2022-12-15T18:56:37.805Z,93785.97
2022-12-15T18:59:40.970Z,93786.22
2022-12-15T19:02:44.335Z,93791.03
2022-12-15T19:05:48.790Z,93787.38
2022-12-15T19:08:52.426Z,93789.69
2022-12-15T19:12:13.809Z,93798.78
2022-12-15T19:15:19.268Z,93801.31
2022-12-15T19:18:42.561Z,93803.81
2022-12-15T19:22:00.722Z,93807.00
2022-12-15T19:25:06.599Z,93798.34
2022-12-15T19:28:22.191Z,93802.25
2022-12-15T19:31:25.364Z,93810.63
2022-12-15T19:34:29.018Z,93807.00
2022-12-15T19:37:32.609Z,93799.69
2022-12-15T19:40:38.785Z,93805.59
2022-12-15T19:43:42.184Z,93810.16
2022-12-15T19:46:45.985Z,93804.44
2022-12-15T19:49:49.281Z,93806.47
2022-12-15T19:53:01.240Z,93803.97
2022-12-15T19:56:05.400Z,93811.69
2022-12-15T19:59:25.247Z,93816.91
2022-12-15T20:02:28.507Z,93818.28
2022-12-15T20:05:31.922Z,93812.81
2022-12-15T20:08:38.478Z,93823.25
2022-12-15T20:11:42.169Z,93820.06
2022-12-15T20:14:46.506Z,93828.47
2022-12-15T20:17:59.695Z,93826.41
2022-12-15T20:21:03.199Z,93833.47
2022-12-15T20:24:08.397Z,93842.97
2022-12-15T20:27:15.058Z,93836.38
2022-12-15T20:30:23.915Z,93834.75
2022-12-15T20:33:27.129Z,93838.16
2022-12-15T20:36:32.035Z,93843.84
2022-12-15T20:39:35.156Z,93847.00
2022-12-15T20:42:38.254Z,93847.88
2022-12-15T20:45:42.177Z,93845.78
2022-12-15T20:48:45.656Z,93852.16
2022-12-15T20:51:49.724Z,93857.81
2022-12-15T20:54:54.065Z,93859.41
2022-12-15T20:57:57.280Z,93857.75
2022-12-15T21:01:00.411Z,93865.47
2022-12-15T21:04:17.445Z,93861.38
2022-12-15T21:07:20.521Z,93859.53
2022-12-15T21:10:23.700Z,93863.34
2022-12-15T21:13:28.699Z,93863.56
2022-12-15T21:16:33.619Z,93863.97
2022-12-15T21:19:36.777Z,93863.28
2022-12-15T21:22:41.166Z,93866.97
2022-12-15T21:25:44.220Z,93867.63
2022-12-15T21:28:51.951Z,93873.78
2022-12-15T21:31:55.223Z,93868.25
2022-12-15T21:34:58.330Z,93867.38
2022-12-15T21:38:01.966Z,93864.88
2022-12-15T21:41:07.472Z,93873.66
2022-12-15T21:44:14.828Z,93873.44
2022-12-15T21:47:47.449Z,93877.94
2022-12-15T21:50:50.642Z,93879.72
2022-12-15T21:53:54.778Z,93876.28
2022-12-15T21:56:58.255Z,93881.06
2022-12-15T22:00:01.467Z,93880.53
2022-12-15T22:03:15.127Z,93883.03
2022-12-15T22:06:23.998Z,93881.44
2022-12-15T22:09:27.191Z,93883.44
2022-12-15T22:12:30.781Z,93879.06
2022-12-15T22:15:33.942Z,93876.75
2022-12-15T22:18:37.054Z,93882.84
2022-12-15T22:21:42.225Z,93882.75
2022-12-15T22:24:45.642Z,93884.53
2022-12-15T22:27:49.393Z,93891.09
2022-12-15T22:30:56.466Z,93892.66
2022-12-15T22:33:59.619Z,93899.50
2022-12-15T22:37:02.694Z,93897.59
2022-12-15T22:40:06.205Z,93896.66
2022-12-15T22:43:36.692Z,93892.53
2022-12-15T22:46:39.837Z,93909.34
2022-12-15T22:49:43.387Z,93914.34
2022-12-15T22:52:47.694Z,93911.84
2022-12-15T22:55:51.964Z,93906.84
2022-12-15T22:59:03.935Z,93910.03
2022-12-15T23:02:07.232Z,93906.31
2022-12-15T23:05:14.263Z,93897.03
2022-12-15T23:08:17.380Z,93899.50
2022-12-15T23:11:37.703Z,93903.38
2022-12-15T23:14:58.959Z,93907.88
2022-12-15T23:18:02.175Z,93910.56
2022-12-15T23:21:05.465Z,93903.53
2022-12-15T23:24:09.958Z,93910.75
2022-12-15T23:27:13.660Z,93911.63
2022-12-15T23:30:16.621Z,93914.81
2022-12-15T23:33:20.012Z,93928.44
2022-12-15T23:36:23.103Z,93932.75
2022-12-15T23:39:26.584Z,93932.47
2022-12-15T23:42:29.779Z,93930.16
2022-12-15T23:45:32.828Z,93932.41
2022-12-15T23:48:38.730Z,93933.28
2022-12-15T23:51:41.786Z,93929.66
2022-12-15T23:54:45.523Z,93936.22
2022-12-15T23:57:49.199Z,93931.63
